sensor_id;sensor_type;location;lat;lon;timestamp;pressure;altitude;pressure_sealevel;temperature;humidity
6423;BME280;3244;42.708;23.288;2023-07-29T04:25:10;95000.88;;;24.33;nan
6423;BME280;3244;42.708;23.288;2023-07-29T06:12:47;95043.50;;;33.38;nan
6423;BME280;3244;42.708;23.288;2023-07-29T06:15:15;95044.91;;;36.61;nan
6423;BME280;3244;42.708;23.288;2023-07-29T06:17:42;95035.47;;;39.34;nan
6423;BME280;3244;42.708;23.288;2023-07-29T06:20:10;95024.97;;;41.78;nan
6423;BME280;3244;42.708;23.288;2023-07-29T06:22:36;95023.97;;;43.62;nan
6423;BME280;3244;42.708;23.288;2023-07-29T06:25:04;95024.00;;;45.18;nan
6423;BME280;3244;42.708;23.288;2023-07-29T06:27:30;95008.88;;;45.93;nan
6423;BME280;3244;42.708;23.288;2023-07-29T06:29:57;95006.50;;;46.51;nan
6423;BME280;3244;42.708;23.288;2023-07-29T06:32:25;95005.16;;;47.60;nan
6423;BME280;3244;42.708;23.288;2023-07-29T06:34:52;95002.53;;;48.88;nan
6423;BME280;3244;42.708;23.288;2023-07-29T06:37:19;94997.56;;;49.60;nan
6423;BME280;3244;42.708;23.288;2023-07-29T06:39:47;94996.16;;;49.77;nan
6423;BME280;3244;42.708;23.288;2023-07-29T06:42:13;94993.00;;;50.29;nan
6423;BME280;3244;42.708;23.288;2023-07-29T06:44:40;94992.19;;;50.29;nan
6423;BME280;3244;42.708;23.288;2023-07-29T06:47:07;94984.13;;;50.65;nan
6423;BME280;3244;42.708;23.288;2023-07-29T06:49:35;94986.22;;;50.54;nan
6423;BME280;3244;42.708;23.288;2023-07-29T06:52:02;94986.16;;;50.46;nan
6423;BME280;3244;42.708;23.288;2023-07-29T06:54:29;94981.56;;;51.04;nan
6423;BME280;3244;42.708;23.288;2023-07-29T06:56:55;94997.78;;;51.49;nan
6423;BME280;3244;42.708;23.288;2023-07-29T06:59:22;94989.06;;;51.92;nan
6423;BME280;3244;42.708;23.288;2023-07-29T07:01:50;94987.75;;;51.81;nan
6423;BME280;3244;42.708;23.288;2023-07-29T07:04:16;94972.91;;;51.69;nan
6423;BME280;3244;42.708;23.288;2023-07-29T07:06:44;94990.25;;;51.68;nan
6423;BME280;3244;42.708;23.288;2023-07-29T07:09:11;94987.88;;;51.76;nan
6423;BME280;3244;42.708;23.288;2023-07-29T07:11:38;94987.81;;;51.98;nan
6423;BME280;3244;42.708;23.288;2023-07-29T07:14:04;94982.91;;;52.09;nan
6423;BME280;3244;42.708;23.288;2023-07-29T07:16:31;94986.34;;;52.31;nan
6423;BME280;3244;42.708;23.288;2023-07-29T07:18:57;94989.59;;;52.68;nan
6423;BME280;3244;42.708;23.288;2023-07-29T07:21:24;94986.81;;;52.51;nan
6423;BME280;3244;42.708;23.288;2023-07-29T07:23:52;94980.28;;;52.52;nan
6423;BME280;3244;42.708;23.288;2023-07-29T07:26:19;94978.75;;;52.68;nan
6423;BME280;3244;42.708;23.288;2023-07-29T07:28:45;94987.25;;;53.56;nan
6423;BME280;3244;42.708;23.288;2023-07-29T07:31:12;94978.69;;;52.33;nan
6423;BME280;3244;42.708;23.288;2023-07-29T07:33:39;94971.75;;;51.62;nan
6423;BME280;3244;42.708;23.288;2023-07-29T07:36:05;94967.03;;;51.00;nan
6423;BME280;3244;42.708;23.288;2023-07-29T07:38:32;94963.75;;;50.31;nan
6423;BME280;3244;42.708;23.288;2023-07-29T07:41:00;94964.94;;;50.39;nan
6423;BME280;3244;42.708;23.288;2023-07-29T07:43:27;94964.63;;;51.44;nan
6423;BME280;3244;42.708;23.288;2023-07-29T07:45:58;94964.38;;;52.67;nan
6423;BME280;3244;42.708;23.288;2023-07-29T07:48:25;94986.47;;;52.18;nan
6423;BME280;3244;42.708;23.288;2023-07-29T07:50:51;94972.09;;;51.38;nan
6423;BME280;3244;42.708;23.288;2023-07-29T07:53:18;94974.84;;;50.44;nan
6423;BME280;3244;42.708;23.288;2023-07-29T07:55:45;94963.47;;;49.64;nan
6423;BME280;3244;42.708;23.288;2023-07-29T07:58:13;94970.44;;;49.79;nan
6423;BME280;3244;42.708;23.288;2023-07-29T08:00:40;94971.56;;;50.19;nan
6423;BME280;3244;42.708;23.288;2023-07-29T08:03:07;94970.69;;;50.74;nan
6423;BME280;3244;42.708;23.288;2023-07-29T08:05:33;94970.63;;;51.32;nan
6423;BME280;3244;42.708;23.288;2023-07-29T08:08:00;94967.63;;;51.64;nan
6423;BME280;3244;42.708;23.288;2023-07-29T08:10:27;94961.13;;;51.43;nan
6423;BME280;3244;42.708;23.288;2023-07-29T08:12:53;94968.00;;;52.54;nan
6423;BME280;3244;42.708;23.288;2023-07-29T08:15:21;94972.00;;;52.91;nan
6423;BME280;3244;42.708;23.288;2023-07-29T08:20:14;94971.69;;;51.93;nan
6423;BME280;3244;42.708;23.288;2023-07-29T08:22:41;94978.75;;;52.02;nan
6423;BME280;3244;42.708;23.288;2023-07-29T08:25:08;94974.84;;;52.34;nan
6423;BME280;3244;42.708;23.288;2023-07-29T08:27:35;94974.69;;;51.21;nan
6423;BME280;3244;42.708;23.288;2023-07-29T08:30:01;94980.41;;;49.24;nan
6423;BME280;3244;42.708;23.288;2023-07-29T08:32:29;94976.88;;;48.72;nan
6423;BME280;3244;42.708;23.288;2023-07-29T08:39:49;94975.56;;;48.51;nan
6423;BME280;3244;42.708;23.288;2023-07-29T08:42:19;94974.13;;;48.16;nan
6423;BME280;3244;42.708;23.288;2023-07-29T08:44:49;94969.38;;;48.26;nan
6423;BME280;3244;42.708;23.288;2023-07-29T08:47:16;94971.16;;;48.55;nan
6423;BME280;3244;42.708;23.288;2023-07-29T08:49:45;94960.63;;;47.15;nan
6423;BME280;3244;42.708;23.288;2023-07-29T08:52:12;94954.50;;;46.70;nan
6423;BME280;3244;42.708;23.288;2023-07-29T08:54:40;94953.75;;;48.04;nan
6423;BME280;3244;42.708;23.288;2023-07-29T08:57:07;94950.84;;;49.60;nan
6423;BME280;3244;42.708;23.288;2023-07-29T08:59:33;94947.53;;;50.18;nan
6423;BME280;3244;42.708;23.288;2023-07-29T09:02:00;94946.31;;;50.37;nan
6423;BME280;3244;42.708;23.288;2023-07-29T09:04:27;94946.53;;;50.14;nan
6423;BME280;3244;42.708;23.288;2023-07-29T09:06:56;94951.69;;;49.28;nan
6423;BME280;3244;42.708;23.288;2023-07-29T09:11:50;94953.47;;;47.00;nan
6423;BME280;3244;42.708;23.288;2023-07-29T09:14:17;94945.75;;;46.50;nan
6423;BME280;3244;42.708;23.288;2023-07-29T09:16:44;94948.97;;;46.02;nan
6423;BME280;3244;42.708;23.288;2023-07-29T09:19:11;94937.78;;;46.34;nan
6423;BME280;3244;42.708;23.288;2023-07-29T09:21:39;94923.22;;;46.40;nan
6423;BME280;3244;42.708;23.288;2023-07-29T09:24:07;94933.66;;;45.98;nan
6423;BME280;3244;42.708;23.288;2023-07-29T09:26:35;94925.41;;;46.28;nan
6423;BME280;3244;42.708;23.288;2023-07-29T09:31:29;94933.16;;;44.03;nan
6423;BME280;3244;42.708;23.288;2023-07-29T09:33:57;94934.38;;;42.96;nan
6423;BME280;3244;42.708;23.288;2023-07-29T09:36:25;94923.88;;;42.30;nan
6423;BME280;3244;42.708;23.288;2023-07-29T09:38:55;94924.75;;;41.92;nan
6423;BME280;3244;42.708;23.288;2023-07-29T09:41:24;94921.69;;;41.40;nan
6423;BME280;3244;42.708;23.288;2023-07-29T09:44:02;94915.66;;;39.64;nan
6423;BME280;3244;42.708;23.288;2023-07-29T09:48:58;94915.44;;;36.53;nan
6423;BME280;3244;42.708;23.288;2023-07-29T10:16:02;94915.00;;;32.14;nan
6423;BME280;3244;42.708;23.288;2023-07-29T12:12:17;94817.91;;;31.34;nan
6423;BME280;3244;42.708;23.288;2023-07-29T12:51:34;94752.44;;;30.67;nan
6423;BME280;3244;42.708;23.288;2023-07-29T14:22:05;94723.31;;;30.62;nan
6423;BME280;3244;42.708;23.288;2023-07-29T14:41:39;94739.00;;;30.32;nan
6423;BME280;3244;42.708;23.288;2023-07-29T17:27:57;94851.16;;;27.44;nan
6423;BME280;3244;42.708;23.288;2023-07-29T22:04:54;94986.34;;;22.38;nan
